createdAt,value
2019-03-27T00:02:18.384Z,5.50
2019-03-27T00:05:08.845Z,5.20
2019-03-27T00:07:59.476Z,5.33
2019-03-27T00:10:42.792Z,4.90
2019-03-27T00:13:33.115Z,5.63
2019-03-27T00:16:23.473Z,4.80
2019-03-27T00:22:09.207Z,4.63
2019-03-27T00:24:59.504Z,4.60
2019-03-27T00:27:42.427Z,4.20
2019-03-27T00:30:32.713Z,4.63
2019-03-27T00:33:15.204Z,5.57
2019-03-27T00:36:05.525Z,5.23
2019-03-27T00:38:48.018Z,5.10
2019-03-27T00:41:38.337Z,5.40
2019-03-27T00:44:20.873Z,8.07
2019-03-27T00:47:11.185Z,7.67
2019-03-27T00:49:54.032Z,8.40
2019-03-27T00:52:44.292Z,7.77
2019-03-27T00:55:26.740Z,7.63
2019-03-27T00:58:17.019Z,6.47
2019-03-27T01:01:19.505Z,6.97
2019-03-27T01:04:02.371Z,6.77
2019-03-27T01:06:52.637Z,7.30
2019-03-27T01:09:43.006Z,7.40
2019-03-27T01:12:33.287Z,7.77
2019-03-27T01:15:23.600Z,8.43
2019-03-27T01:18:13.861Z,8.07
2019-03-27T01:20:56.341Z,7.93
2019-03-27T01:23:46.626Z,7.87
2019-03-27T01:26:36.897Z,7.17
2019-03-27T01:29:20.068Z,7.90
2019-03-27T01:32:10.326Z,7.20
2019-03-27T01:35:00.645Z,7.73
2019-03-27T01:37:42.969Z,7.77
2019-03-27T01:40:33.201Z,7.40
2019-03-27T01:43:16.335Z,7.27
2019-03-27T01:46:06.579Z,7.73
2019-03-27T01:51:43.961Z,7.80
2019-03-27T01:54:26.527Z,7.23
2019-03-27T01:57:16.797Z,7.00
2019-03-27T01:59:59.532Z,7.40
2019-03-27T02:02:42.453Z,7.93
2019-03-27T02:05:32.877Z,7.43
2019-03-27T02:08:23.206Z,7.03
2019-03-27T02:11:13.515Z,7.37
2019-03-27T02:14:03.865Z,7.67
2019-03-27T02:16:54.158Z,7.20
2019-03-27T02:19:44.419Z,7.63
2019-03-27T02:22:27.702Z,8.27
2019-03-27T02:25:17.943Z,7.23
2019-03-27T02:28:08.226Z,7.07
2019-03-27T02:30:58.467Z,7.10
2019-03-27T02:34:07.633Z,6.80
2019-03-27T02:36:50.034Z,7.63
2019-03-27T02:39:40.247Z,6.60
2019-03-27T02:42:22.852Z,6.67
2019-03-27T02:45:13.213Z,6.23
2019-03-27T02:47:55.414Z,6.40
2019-03-27T02:50:45.649Z,7.37
2019-03-27T02:53:28.058Z,7.00
2019-03-27T02:56:18.361Z,7.17
2019-03-27T02:59:00.999Z,6.60
2019-03-27T03:01:51.290Z,7.13
2019-03-27T03:04:34.410Z,7.10
2019-03-27T03:07:24.688Z,7.13
2019-03-27T03:10:09.107Z,7.90
2019-03-27T03:12:59.392Z,7.83
2019-03-27T03:15:42.515Z,7.50
2019-03-27T03:18:25.094Z,7.20
2019-03-27T03:21:15.341Z,7.77
2019-03-27T03:24:05.595Z,10.30
2019-03-27T03:26:55.865Z,9.50
2019-03-27T03:29:38.078Z,11.13
2019-03-27T03:32:28.334Z,10.97
2019-03-27T03:35:18.595Z,10.70
2019-03-27T03:38:00.819Z,11.10
2019-03-27T03:40:51.067Z,11.00
2019-03-27T03:43:34.215Z,10.43
2019-03-27T03:46:24.568Z,9.57
2019-03-27T03:49:14.859Z,10.63
2019-03-27T03:52:05.189Z,10.10
2019-03-27T03:54:55.576Z,9.93
2019-03-27T04:04:07.166Z,9.27
2019-03-27T04:06:57.493Z,8.70
2019-03-27T04:09:47.791Z,9.93
2019-03-27T04:12:38.112Z,10.23
2019-03-27T04:15:28.487Z,10.03
2019-03-27T04:18:18.752Z,10.50
2019-03-27T04:21:01.595Z,9.47
2019-03-27T04:23:51.925Z,10.50
2019-03-27T04:26:53.458Z,9.57
2019-03-27T04:29:35.918Z,9.87
2019-03-27T04:32:26.197Z,10.10
2019-03-27T04:35:08.845Z,10.30
2019-03-27T04:37:59.110Z,10.80
2019-03-27T04:40:41.602Z,9.47
2019-03-27T04:43:31.866Z,9.47
2019-03-27T04:46:14.389Z,9.93
2019-03-27T04:49:07.623Z,9.63
2019-03-27T04:51:37.899Z,9.03
2019-03-27T04:54:28.149Z,9.73
2019-03-27T04:57:10.472Z,10.67
2019-03-27T05:00:00.737Z,9.00
2019-03-27T05:02:43.646Z,9.70
2019-03-27T05:05:33.912Z,9.20
2019-03-27T05:08:16.193Z,9.00
2019-03-27T05:11:06.447Z,9.03
2019-03-27T05:13:48.812Z,9.73
2019-03-27T05:16:31.903Z,9.27
2019-03-27T05:19:03.347Z,10.27
2019-03-27T05:22:12.416Z,8.70
2019-03-27T05:24:55.231Z,8.63
2019-03-27T05:27:45.532Z,9.50
2019-03-27T05:30:35.817Z,9.30
2019-03-27T05:33:26.107Z,9.07
2019-03-27T05:36:16.361Z,9.37
2019-03-27T05:39:00.557Z,10.67
2019-03-27T05:41:50.819Z,13.50
2019-03-27T05:44:32.995Z,11.60
2019-03-27T05:47:42.055Z,12.50
2019-03-27T05:50:24.319Z,11.93
2019-03-27T05:53:14.585Z,10.97
2019-03-27T05:55:57.077Z,11.10
2019-03-27T05:58:47.347Z,10.63
2019-03-27T06:01:30.089Z,10.50
2019-03-27T06:04:20.361Z,10.83
2019-03-27T06:07:03.405Z,11.70
2019-03-27T06:09:53.692Z,11.20
2019-03-27T06:12:25.346Z,10.90
2019-03-27T06:15:15.567Z,11.93
2019-03-27T06:17:57.943Z,11.50
2019-03-27T06:20:48.203Z,11.70
2019-03-27T06:23:30.611Z,11.63
2019-03-27T06:26:20.852Z,11.13
2019-03-27T06:29:03.494Z,11.50
2019-03-27T06:31:53.772Z,10.80
2019-03-27T06:34:36.426Z,11.43
2019-03-27T06:37:26.751Z,11.13
2019-03-27T06:40:09.494Z,11.63
2019-03-27T06:42:59.788Z,11.13
2019-03-27T06:45:42.440Z,10.63
2019-03-27T06:48:32.726Z,11.33
2019-03-27T06:51:15.356Z,11.17
2019-03-27T06:54:05.649Z,10.40
2019-03-27T06:56:47.852Z,11.27
2019-03-27T06:59:38.110Z,9.60
2019-03-27T07:02:21.143Z,9.70
2019-03-27T07:05:11.514Z,10.20
2019-03-27T07:07:54.866Z,10.17
2019-03-27T07:10:45.142Z,10.20
2019-03-27T07:13:28.300Z,10.30
2019-03-27T07:16:20.825Z,10.77
2019-03-27T07:19:03.321Z,9.80
2019-03-27T07:21:53.739Z,10.77
2019-03-27T07:24:37.032Z,12.10
2019-03-27T07:27:27.485Z,12.77
2019-03-27T07:30:17.875Z,13.47
2019-03-27T07:33:08.227Z,13.00
2019-03-27T07:35:58.594Z,12.73
2019-03-27T07:41:52.245Z,13.17
2019-03-27T07:44:35.717Z,12.50
2019-03-27T07:47:18.410Z,13.10
2019-03-27T07:50:08.815Z,12.83
2019-03-27T07:52:59.234Z,13.40
2019-03-27T07:55:49.531Z,12.83
2019-03-27T07:58:39.833Z,14.53
2019-03-27T08:01:30.241Z,14.50
2019-03-27T08:04:20.529Z,14.13
2019-03-27T08:07:03.333Z,14.87
2019-03-27T08:09:53.619Z,15.30
2019-03-27T08:12:44.045Z,16.60
2019-03-27T08:15:34.362Z,16.60
2019-03-27T08:18:24.647Z,16.60
2019-03-27T08:21:14.937Z,16.93
2019-03-27T08:24:05.291Z,17.83
2019-03-27T08:26:55.623Z,15.33
2019-03-27T08:29:45.916Z,18.10
2019-03-27T08:32:37.519Z,16.83
2019-03-27T08:35:20.853Z,18.97
2019-03-27T08:38:11.189Z,19.07
2019-03-27T08:41:01.559Z,18.57
2019-03-27T08:43:51.965Z,17.27
2019-03-27T08:46:42.242Z,16.60
2019-03-27T08:49:32.744Z,19.17
2019-03-27T08:52:34.094Z,19.53
2019-03-27T08:55:16.482Z,16.17
2019-03-27T08:58:06.741Z,18.57
2019-03-27T09:00:50.473Z,19.30
2019-03-27T09:03:40.819Z,18.17
2019-03-27T09:06:33.491Z,15.47
2019-03-27T09:09:15.303Z,18.63
2019-03-27T09:11:59.292Z,18.43
2019-03-27T09:14:49.536Z,17.90
2019-03-27T09:17:32.250Z,16.47
2019-03-27T09:20:22.537Z,16.63
2019-03-27T09:23:05.041Z,15.53
2019-03-27T09:25:55.286Z,15.47
2019-03-27T09:28:37.909Z,13.60
2019-03-27T09:31:28.251Z,16.10
2019-03-27T09:34:10.874Z,15.93
2019-03-27T09:36:42.362Z,13.07
2019-03-27T09:39:32.626Z,14.90
2019-03-27T09:42:22.938Z,13.93
2019-03-27T09:48:27.102Z,11.27
2019-03-27T09:51:17.399Z,10.83
2019-03-27T09:54:07.804Z,12.67
2019-03-27T09:56:58.126Z,12.57
2019-03-27T09:59:48.536Z,10.47
2019-03-27T10:02:38.867Z,9.53
2019-03-27T10:05:29.192Z,10.40
2019-03-27T10:08:19.796Z,9.83
2019-03-27T10:11:10.166Z,8.83
2019-03-27T10:13:52.766Z,7.67
2019-03-27T10:16:43.077Z,7.87
2019-03-27T10:19:33.422Z,7.90
2019-03-27T10:22:23.746Z,7.73
2019-03-27T10:28:48.632Z,7.27
2019-03-27T10:31:38.918Z,8.73
2019-03-27T10:34:21.761Z,6.93
2019-03-27T10:40:08.014Z,6.80
2019-03-27T10:42:58.320Z,5.20
2019-03-27T10:45:48.718Z,4.70
2019-03-27T10:48:51.857Z,5.50
2019-03-27T10:51:23.350Z,4.37
2019-03-27T10:54:13.586Z,4.30
2019-03-27T10:56:56.415Z,3.67
2019-03-27T10:59:46.690Z,4.10
2019-03-27T11:02:36.971Z,5.00
2019-03-27T11:05:19.758Z,4.90
2019-03-27T11:08:11.615Z,4.60
2019-03-27T11:10:55.416Z,4.77
2019-03-27T11:13:38.267Z,4.70
2019-03-27T11:16:28.542Z,5.07
2019-03-27T11:19:18.808Z,4.67
2019-03-27T11:22:09.118Z,5.10
2019-03-27T11:24:59.400Z,4.50
2019-03-27T11:27:49.708Z,4.97
2019-03-27T11:34:15.938Z,5.20
2019-03-27T11:37:06.212Z,5.17
2019-03-27T11:39:50.059Z,5.57
2019-03-27T11:42:40.311Z,4.43
2019-03-27T11:45:22.611Z,5.27
2019-03-27T11:48:12.999Z,5.50
2019-03-27T11:50:55.699Z,5.20
2019-03-27T11:53:45.977Z,5.90
2019-03-27T11:56:28.272Z,6.23
2019-03-27T11:59:18.509Z,6.73
2019-03-27T12:02:02.116Z,6.37
2019-03-27T12:04:52.388Z,6.47
2019-03-27T12:07:34.829Z,6.70
2019-03-27T12:10:43.907Z,6.43
2019-03-27T12:13:26.323Z,5.93
2019-03-27T12:16:16.600Z,6.20
2019-03-27T12:18:59.397Z,6.27
2019-03-27T12:21:49.621Z,7.13
2019-03-27T12:24:31.961Z,6.03
2019-03-27T12:27:22.228Z,6.43
2019-03-27T12:30:06.672Z,6.53
2019-03-27T12:32:56.946Z,6.13
2019-03-27T12:35:40.091Z,5.20
2019-03-27T12:38:30.382Z,6.67
2019-03-27T12:41:12.937Z,5.83
2019-03-27T12:44:03.245Z,5.83
2019-03-27T12:46:46.284Z,6.27
2019-03-27T12:49:36.518Z,5.27
2019-03-27T12:52:19.178Z,6.40
2019-03-27T12:55:09.399Z,6.23
2019-03-27T12:57:51.964Z,5.73
2019-03-27T13:00:42.231Z,6.00
2019-03-27T13:03:25.026Z,6.13
2019-03-27T13:06:15.306Z,6.43
2019-03-27T13:08:58.211Z,6.90
2019-03-27T13:11:48.490Z,6.47
2019-03-27T13:14:30.990Z,4.87
2019-03-27T13:17:21.228Z,4.63
2019-03-27T13:20:04.028Z,5.30
2019-03-27T13:22:54.280Z,4.87
2019-03-27T13:25:36.897Z,4.90
2019-03-27T13:28:49.155Z,5.30
2019-03-27T13:31:30.803Z,4.80
2019-03-27T13:34:21.136Z,4.90
2019-03-27T13:43:51.301Z,4.73
2019-03-27T13:46:41.582Z,5.17
2019-03-27T13:49:31.891Z,4.10
2019-03-27T13:52:14.659Z,4.80
2019-03-27T13:55:05.285Z,4.20
2019-03-27T13:57:55.544Z,4.53
2019-03-27T14:00:38.875Z,4.33
2019-03-27T14:03:29.219Z,4.33
2019-03-27T14:06:19.679Z,4.40
2019-03-27T14:09:10.168Z,4.50
2019-03-27T14:12:00.479Z,4.60
2019-03-27T14:14:50.950Z,4.80
2019-03-27T14:17:41.402Z,4.60
2019-03-27T14:20:31.686Z,4.50
2019-03-27T14:23:21.924Z,4.67
2019-03-27T14:29:16.064Z,4.43
2019-03-27T14:32:06.429Z,4.60
2019-03-27T14:34:56.665Z,4.17
2019-03-27T14:37:46.990Z,4.23
2019-03-27T14:40:37.302Z,4.10
2019-03-27T14:43:20.239Z,4.50
2019-03-27T14:46:10.483Z,4.20
2019-03-27T14:48:53.263Z,4.70
2019-03-27T14:51:43.549Z,4.30
2019-03-27T14:54:26.000Z,4.27
2019-03-27T14:57:16.327Z,3.97
2019-03-27T14:59:58.950Z,3.73
2019-03-27T15:02:49.258Z,4.57
2019-03-27T15:05:31.744Z,4.30
2019-03-27T15:08:33.694Z,4.60
2019-03-27T15:11:16.738Z,4.43
2019-03-27T15:14:07.035Z,4.40
2019-03-27T15:16:38.527Z,4.13
2019-03-27T15:19:28.813Z,4.17
2019-03-27T15:22:21.691Z,4.07
2019-03-27T15:25:03.596Z,3.87
2019-03-27T15:27:46.549Z,4.10
2019-03-27T15:30:36.793Z,4.70
2019-03-27T15:33:19.400Z,4.50
2019-03-27T15:36:09.680Z,4.53
2019-03-27T15:38:52.447Z,4.40
2019-03-27T15:41:42.729Z,4.17
2019-03-27T15:44:25.169Z,4.63
2019-03-27T15:50:16.951Z,4.60
2019-03-27T15:53:07.231Z,4.10
2019-03-27T15:55:49.454Z,3.93
2019-03-27T15:58:39.717Z,3.93
2019-03-27T16:01:22.507Z,3.80
2019-03-27T16:04:12.745Z,4.10
2019-03-27T16:06:55.251Z,4.07
2019-03-27T16:09:45.513Z,4.40
2019-03-27T16:12:28.668Z,3.60
2019-03-27T16:15:18.919Z,4.43
2019-03-27T16:18:01.080Z,4.23
2019-03-27T16:20:51.347Z,3.90
2019-03-27T16:23:33.942Z,4.30
2019-03-27T16:26:43.020Z,4.10
2019-03-27T16:29:25.259Z,4.47
2019-03-27T16:32:15.499Z,4.33
2019-03-27T16:34:58.230Z,4.03
2019-03-27T16:37:48.498Z,4.10
2019-03-27T16:40:50.150Z,4.90
2019-03-27T16:43:41.576Z,4.27
2019-03-27T16:46:24.656Z,3.63
2019-03-27T16:49:14.932Z,4.20
2019-03-27T16:51:57.314Z,4.60
2019-03-27T16:54:47.565Z,4.43
2019-03-27T16:57:30.636Z,4.60
2019-03-27T17:00:20.884Z,4.10
2019-03-27T17:03:03.396Z,3.80
2019-03-27T17:05:53.774Z,3.97
2019-03-27T17:08:32.166Z,4.17
2019-03-27T17:11:22.398Z,4.17
2019-03-27T17:14:04.836Z,3.60
2019-03-27T17:17:06.411Z,3.93
2019-03-27T17:19:49.661Z,3.70
2019-03-27T17:22:39.934Z,3.90
2019-03-27T17:25:22.458Z,3.90
2019-03-27T17:28:12.716Z,3.70
2019-03-27T17:30:54.850Z,3.80
2019-03-27T17:33:45.139Z,3.07
2019-03-27T17:36:27.974Z,3.60
2019-03-27T17:39:18.272Z,3.70
2019-03-27T17:42:08.538Z,3.67
2019-03-27T17:44:52.223Z,3.77
2019-03-27T17:47:42.844Z,3.90
2019-03-27T17:50:33.242Z,4.07
2019-03-27T17:53:31.614Z,3.67
2019-03-27T17:56:08.246Z,3.67
2019-03-27T17:58:58.556Z,3.63
2019-03-27T18:01:48.874Z,3.83
2019-03-27T18:04:39.140Z,3.73
2019-03-27T18:07:29.388Z,4.43
2019-03-27T18:10:19.632Z,3.80
2019-03-27T18:13:09.917Z,4.20
2019-03-27T18:15:52.694Z,3.77
2019-03-27T18:18:43.013Z,4.50
2019-03-27T18:21:25.412Z,4.80
2019-03-27T18:24:15.949Z,4.80
2019-03-27T18:26:59.148Z,4.33
2019-03-27T18:29:49.427Z,5.07
2019-03-27T18:32:31.993Z,4.80
2019-03-27T18:35:23.300Z,5.13
2019-03-27T18:38:06.070Z,4.33
2019-03-27T18:40:56.332Z,4.57
2019-03-27T18:43:38.603Z,5.80
2019-03-27T18:46:28.896Z,4.80
2019-03-27T18:49:11.833Z,5.03
2019-03-27T18:52:02.082Z,5.60
2019-03-27T18:57:40.477Z,5.63
2019-03-27T19:00:30.930Z,5.70
2019-03-27T19:03:21.295Z,5.30
2019-03-27T19:06:11.668Z,5.57
2019-03-27T19:09:01.926Z,6.20
2019-03-27T19:11:45.094Z,5.30
2019-03-27T19:14:46.505Z,5.87
2019-03-27T19:17:29.162Z,5.50
2019-03-27T19:20:19.451Z,5.33
2019-03-27T19:23:01.791Z,5.87
2019-03-27T19:25:52.059Z,5.77
2019-03-27T19:28:35.006Z,6.10
2019-03-27T19:31:25.325Z,6.10
2019-03-27T19:34:07.713Z,5.73
2019-03-27T19:36:39.165Z,6.57
2019-03-27T19:39:29.449Z,6.87
2019-03-27T19:42:12.151Z,5.83
2019-03-27T19:44:54.423Z,5.80
2019-03-27T19:47:44.707Z,6.03
2019-03-27T19:50:26.981Z,6.07
2019-03-27T19:53:17.355Z,5.73
2019-03-27T19:56:07.696Z,6.43
2019-03-27T19:59:16.803Z,6.33
2019-03-27T20:02:01.237Z,6.10
2019-03-27T20:04:51.535Z,6.83
2019-03-27T20:07:41.806Z,6.43
2019-03-27T20:10:32.095Z,6.07
2019-03-27T20:13:22.398Z,6.83
2019-03-27T20:16:12.689Z,6.27
2019-03-27T20:19:02.925Z,6.43
2019-03-27T20:21:46.003Z,6.47
2019-03-27T20:24:41.315Z,6.40
2019-03-27T20:27:20.699Z,7.23
2019-03-27T20:33:26.208Z,6.70
2019-03-27T20:36:16.536Z,6.10
2019-03-27T20:39:09.239Z,6.87
2019-03-27T20:44:53.064Z,6.63
2019-03-27T20:47:43.384Z,7.20
2019-03-27T20:50:33.719Z,7.50
2019-03-27T20:53:24.080Z,6.93
2019-03-27T20:56:25.513Z,7.17
2019-03-27T20:59:07.626Z,7.07
2019-03-27T21:01:57.893Z,7.37
2019-03-27T21:04:40.334Z,7.63
2019-03-27T21:07:30.606Z,7.77
2019-03-27T21:10:13.598Z,7.90
2019-03-27T21:13:03.871Z,8.30
2019-03-27T21:15:46.140Z,7.63
2019-03-27T21:18:36.488Z,7.63
2019-03-27T21:21:26.879Z,7.00
2019-03-27T21:24:09.248Z,7.17
2019-03-27T21:26:59.908Z,7.47
2019-03-27T21:29:50.216Z,7.27
2019-03-27T21:32:40.544Z,7.60
2019-03-27T21:35:30.916Z,6.63
2019-03-27T21:38:21.222Z,7.37
2019-03-27T21:41:11.562Z,7.10
2019-03-27T21:44:01.798Z,7.17
2019-03-27T21:46:44.436Z,7.17
2019-03-27T21:49:34.752Z,6.97
2019-03-27T21:52:25.102Z,6.73
2019-03-27T21:55:47.618Z,7.30
2019-03-27T21:58:31.446Z,6.97
2019-03-27T22:01:13.984Z,6.63
2019-03-27T22:04:23.229Z,6.53
2019-03-27T22:07:13.552Z,6.57
2019-03-27T22:10:03.929Z,6.80
2019-03-27T22:12:54.286Z,6.70
2019-03-27T22:15:44.637Z,6.70
2019-03-27T22:18:34.936Z,6.40
2019-03-27T22:21:25.281Z,7.20
2019-03-27T22:24:15.550Z,6.93
2019-03-27T22:27:05.982Z,6.70
2019-03-27T22:29:56.660Z,7.63
2019-03-27T22:32:47.715Z,6.53
2019-03-27T22:35:38.609Z,7.17
2019-03-27T22:39:01.650Z,8.40
2019-03-27T22:41:44.976Z,7.37
2019-03-27T22:44:36.588Z,7.67
2019-03-27T22:47:21.559Z,7.50
2019-03-27T22:50:12.168Z,7.77
2019-03-27T22:52:54.631Z,7.17
2019-03-27T22:55:49.849Z,7.40
2019-03-27T22:58:36.434Z,8.10
2019-03-27T23:01:20.602Z,7.73
2019-03-27T23:04:02.919Z,7.97
2019-03-27T23:06:50.086Z,9.23
2019-03-27T23:12:40.839Z,6.93
2019-03-27T23:15:24.714Z,8.13
2019-03-27T23:18:07.283Z,7.10
2019-03-27T23:24:02.372Z,7.70
2019-03-27T23:26:45.935Z,7.77
2019-03-27T23:29:36.304Z,8.10
2019-03-27T23:32:19.755Z,7.20
2019-03-27T23:38:25.189Z,7.53
2019-03-27T23:41:07.787Z,7.10
2019-03-27T23:43:58.059Z,7.73
2019-03-27T23:46:48.332Z,7.80
2019-03-27T23:49:31.185Z,8.43
2019-03-27T23:52:21.530Z,8.43
2019-03-27T23:55:11.952Z,8.17
2019-03-27T23:58:02.881Z,9.20
